Time;durP1;ratioP1;P1;durP2;ratioP2;P2;SDS_P1;SDS_P2;PMS_P1;PMS_P2;Temp;Humidity;BMP_temperature;BMP_pressure;BME280_temperature;BME280_humidity;BME280_pressure;Samples;Min_cycle;Max_cycle;Signal;HPM_P1;HPM_P2
2023/06/23 12:07:28;;;;;;;2.90;1.58;;;27.10;97.70;;;;;;4821617;23;20282;-73
2023/06/23 12:09:55;;;;;;;2.63;1.77;;;27.40;98.70;;;;;;4956215;29;20282;-72
2023/06/23 12:12:22;;;;;;;3.47;1.80;;;27.70;98.40;;;;;;4956292;29;20208;-73
2023/06/23 12:14:49;;;;;;;2.42;1.50;;;27.80;97.50;;;;;;4952820;29;20209;-73
2023/06/23 12:17:15;;;;;;;2.85;1.70;;;27.90;97.40;;;;;;4955468;29;20215;-73
2023/06/23 12:19:42;;;;;;;2.75;1.77;;;28.10;98.00;;;;;;4951942;29;20212;-73
2023/06/23 12:22:15;;;;;;;2.20;1.63;;;28.30;97.10;;;;;;4956197;29;20919;-73
2023/06/23 12:24:43;;;;;;;4.63;1.92;;;28.50;97.50;;;;;;4956177;29;20259;-73
2023/06/23 12:27:11;;;;;;;2.67;1.80;;;28.40;97.10;;;;;;4956482;29;20242;-72
2023/06/23 12:29:38;;;;;;;2.20;1.67;;;28.40;96.20;;;;;;4951806;29;20216;-73
2023/06/23 12:32:05;;;;;;;2.70;1.67;;;28.40;97.80;;;;;;4956124;29;20685;-73
2023/06/23 12:34:33;;;;;;;2.50;1.70;;;28.60;97.70;;;;;;4953375;28;20227;-73
2023/06/23 12:37:07;;;;;;;4.25;1.50;;;28.60;97.10;;;;;;4955884;29;20214;-73
2023/06/23 12:39:34;;;;;;;2.00;1.52;;;28.70;96.40;;;;;;4954580;29;20212;-73
2023/06/23 12:42:03;;;;;;;2.13;1.45;;;28.60;95.40;;;;;;4955977;29;20681;-73
2023/06/23 12:44:31;;;;;;;2.97;1.70;;;28.40;96.60;;;;;;4954789;29;20579;-72
2023/06/23 12:46:58;;;;;;;4.90;2.10;;;28.50;95.30;;;;;;4955831;29;20243;-73
2023/06/23 12:49:31;;;;;;;1.92;1.40;;;28.70;95.90;;;;;;4951967;29;20235;-73
2023/06/23 12:51:58;;;;;;;3.40;1.30;;;28.80;96.70;;;;;;4955674;29;20208;-72
2023/06/23 12:54:27;;;;;;;2.83;1.60;;;28.90;95.80;;;;;;4947825;29;20231;-72
2023/06/23 12:56:57;;;;;;;2.25;1.50;;;29.00;97.50;;;;;;4940096;29;20578;-72
2023/06/23 12:59:28;;;;;;;3.17;1.50;;;29.10;96.00;;;;;;4949100;29;20299;-71
2023/06/23 13:01:55;;;;;;;1.83;1.42;;;29.00;95.80;;;;;;4949810;29;20551;-72
2023/06/23 13:04:22;;;;;;;3.25;1.20;;;29.10;96.50;;;;;;4955021;29;20322;-72
2023/06/23 13:06:49;;;;;;;1.85;1.33;;;29.10;96.00;;;;;;4955134;29;20327;-71
2023/06/23 13:09:16;;;;;;;2.45;1.70;;;29.30;96.40;;;;;;4944934;29;20205;-72
2023/06/23 13:11:43;;;;;;;1.73;1.17;;;29.20;96.10;;;;;;4950881;29;20214;-71
2023/06/23 13:14:10;;;;;;;1.70;1.23;;;29.40;96.00;;;;;;4953713;29;20224;-71
2023/06/23 13:16:38;;;;;;;3.08;1.40;;;29.50;96.90;;;;;;4939263;29;20569;-72
2023/06/23 13:19:05;;;;;;;4.47;1.38;;;29.40;96.60;;;;;;4947852;29;20648;-72
2023/06/23 13:21:32;;;;;;;1.90;1.33;;;29.30;95.90;;;;;;4950997;29;20212;-73
2023/06/23 13:23:59;;;;;;;2.00;1.40;;;29.00;95.60;;;;;;4954276;29;20223;-72
2023/06/23 13:26:25;;;;;;;4.32;2.50;;;28.90;95.50;;;;;;4952988;29;20250;-72
2023/06/23 13:28:52;;;;;;;3.03;1.58;;;29.00;96.30;;;;;;4951118;29;20212;-71
2023/06/23 13:31:19;;;;;;;3.03;1.67;;;29.00;96.80;;;;;;4955086;29;20216;-71
2023/06/23 13:33:47;;;;;;;2.03;1.40;;;29.10;97.40;;;;;;4942977;28;20250;-71
2023/06/23 13:36:14;;;;;;;2.20;1.38;;;29.20;96.80;;;;;;4954694;28;20207;-72
2023/06/23 13:38:42;;;;;;;2.17;1.20;;;29.20;96.40;;;;;;4951540;29;20212;-72
2023/06/23 13:41:09;;;;;;;2.53;1.30;;;29.30;96.80;;;;;;4952434;29;20647;-72
2023/06/23 13:43:36;;;;;;;2.75;1.38;;;29.20;95.10;;;;;;4942913;29;20242;-72
2023/06/23 13:46:03;;;;;;;2.60;1.48;;;29.10;95.80;;;;;;4953792;28;20294;-71
2023/06/23 13:48:30;;;;;;;1.98;1.60;;;29.20;96.50;;;;;;4953435;29;20332;-72
2023/06/23 13:50:58;;;;;;;2.42;1.42;;;29.10;97.90;;;;;;4954441;29;20303;-72
2023/06/23 13:53:25;;;;;;;2.47;1.55;;;29.00;96.50;;;;;;4943556;28;20239;-71
2023/06/23 13:55:52;;;;;;;1.67;1.48;;;29.00;96.00;;;;;;4954538;29;20215;-72
2023/06/23 13:58:19;;;;;;;1.95;1.45;;;29.20;96.60;;;;;;4953994;29;20238;-71
2023/06/23 14:00:46;;;;;;;1.50;1.27;;;29.40;95.40;;;;;;4953602;29;20570;-72
2023/06/23 14:03:13;;;;;;;3.15;1.30;;;29.40;97.10;;;;;;4954680;29;20314;-72
2023/06/23 14:05:40;;;;;;;1.40;1.15;;;29.40;97.70;;;;;;4954353;29;20215;-72
2023/06/23 14:08:08;;;;;;;2.67;1.55;;;29.40;97.50;;;;;;4954474;29;20598;-72
2023/06/23 14:10:35;;;;;;;4.10;1.75;;;29.40;95.60;;;;;;4940352;29;20215;-72
2023/06/23 14:13:02;;;;;;;2.08;1.42;;;29.40;95.90;;;;;;4934502;29;20236;-71
2023/06/23 14:15:29;;;;;;;2.50;1.38;;;29.50;96.00;;;;;;4934252;29;20209;-72
2023/06/23 14:17:56;;;;;;;1.60;1.25;;;29.40;96.70;;;;;;4934192;29;20560;-71
2023/06/23 14:20:23;;;;;;;2.08;1.50;;;29.30;96.30;;;;;;4944718;29;20210;-71
2023/06/23 14:22:51;;;;;;;2.05;1.60;;;29.30;97.30;;;;;;4953464;28;20227;-72
2023/06/23 14:25:20;;;;;;;2.65;1.48;;;29.40;96.90;;;;;;4953223;28;20216;-71
2023/06/23 14:27:47;;;;;;;2.88;1.73;;;29.30;96.70;;;;;;4947727;29;20330;-73
2023/06/23 14:30:14;;;;;;;2.78;1.70;;;29.00;96.10;;;;;;4952679;28;20671;-72
2023/06/23 14:32:48;;;;;;;2.47;1.70;;;28.90;96.60;;;;;;4944297;29;20232;-71
2023/06/23 14:35:15;;;;;;;2.55;1.80;;;29.00;96.70;;;;;;4933432;29;20312;-70
2023/06/23 14:37:43;;;;;;;3.70;1.88;;;28.90;97.00;;;;;;4950433;29;20670;-72
2023/06/23 14:40:10;;;;;;;1.70;1.60;;;28.70;97.10;;;;;;4952436;28;20267;-70
2023/06/23 14:42:41;;;;;;;2.60;1.60;;;28.60;96.50;;;;;;4952426;29;20232;-70
2023/06/23 14:45:09;;;;;;;2.22;1.60;;;28.70;96.50;;;;;;4942578;29;20217;-75
2023/06/23 14:47:36;;;;;;;2.70;1.52;;;28.80;97.70;;;;;;4950349;29;20235;-72
2023/06/23 14:50:06;;;;;;;1.70;1.55;;;28.80;97.30;;;;;;4953193;28;20754;-70
2023/06/23 14:52:32;;;;;;;2.80;1.48;;;28.70;96.80;;;;;;4952796;29;20291;-73
2023/06/23 14:54:59;;;;;;;2.15;1.50;;;28.80;97.00;;;;;;4953502;29;20312;-75
2023/06/23 14:57:27;;;;;;;4.15;1.80;;;29.00;97.00;;;;;;4938468;29;20213;-73
2023/06/23 14:59:56;;;;;;;4.35;1.95;;;28.90;97.20;;;;;;4944333;28;20749;-74
2023/06/23 15:02:23;;;;;;;3.58;1.90;;;28.90;96.40;;;;;;4956137;28;20298;-73
2023/06/23 15:04:51;;;;;;;2.78;1.65;;;29.00;97.20;;;;;;4956416;29;20220;-75
2023/06/23 15:07:18;;;;;;;1.95;1.50;;;29.10;96.70;;;;;;4955279;29;20331;-72
2023/06/23 15:09:45;;;;;;;2.88;1.60;;;28.90;96.90;;;;;;4956464;28;20298;-74
2023/06/23 15:12:12;;;;;;;4.65;1.60;;;28.90;96.50;;;;;;4956441;28;20210;-73
2023/06/23 15:14:39;;;;;;;3.63;1.60;;;28.90;97.10;;;;;;4956501;29;20303;-73
2023/06/23 15:17:08;;;;;;;3.08;1.83;;;28.80;96.90;;;;;;4955938;29;20212;-74
2023/06/23 15:19:35;;;;;;;2.50;1.58;;;28.80;97.70;;;;;;4956544;29;20603;-75
2023/06/23 15:22:02;;;;;;;3.58;1.50;;;28.80;97.00;;;;;;4945820;29;20743;-75
2023/06/23 15:24:29;;;;;;;2.92;1.65;;;29.00;96.90;;;;;;4945427;29;20232;-74
2023/06/23 15:26:56;;;;;;;2.80;1.48;;;28.60;97.50;;;;;;4955793;29;20223;-73
2023/06/23 15:29:23;;;;;;;2.75;1.58;;;28.40;97.20;;;;;;4956461;29;20300;-74
2023/06/23 15:31:50;;;;;;;1.88;1.40;;;28.50;97.50;;;;;;4947421;29;20248;-74
2023/06/23 15:34:18;;;;;;;2.40;1.42;;;28.40;97.30;;;;;;4936642;29;20240;-73
2023/06/23 15:36:45;;;;;;;2.25;1.50;;;28.40;98.20;;;;;;4950836;28;20208;-74
2023/06/23 15:39:12;;;;;;;2.40;1.40;;;28.40;95.90;;;;;;4955406;29;20557;-74
2023/06/23 15:41:39;;;;;;;1.90;1.45;;;28.40;95.50;;;;;;4947402;29;20247;-76
2023/06/23 15:44:06;;;;;;;1.60;1.20;;;28.40;96.50;;;;;;4937556;29;20312;-75
2023/06/23 15:46:33;;;;;;;1.92;1.35;;;28.30;96.70;;;;;;4943056;29;20216;-76
2023/06/23 15:48:59;;;;;;;1.85;1.55;;;28.20;97.50;;;;;;4956412;29;20240;-76
2023/06/23 15:51:28;;;;;;;3.75;1.92;;;28.20;96.90;;;;;;4956218;29;20276;-77
2023/06/23 15:53:55;;;;;;;2.85;2.00;;;28.30;96.90;;;;;;4955880;29;20228;-75
2023/06/23 15:56:22;;;;;;;3.08;1.90;;;28.40;97.20;;;;;;4956060;28;20213;-74
2023/06/23 15:58:48;;;;;;;3.55;1.77;;;28.40;97.50;;;;;;4956220;29;20574;-75
2023/06/23 16:01:15;;;;;;;4.30;1.65;;;28.30;97.70;;;;;;4956314;29;20211;-74
2023/06/23 16:03:43;;;;;;;2.08;1.70;;;28.40;97.60;;;;;;4943015;29;20704;-75
2023/06/23 16:06:10;;;;;;;1.92;1.40;;;28.40;96.50;;;;;;4941928;28;20216;-76
2023/06/23 16:08:38;;;;;;;2.80;1.83;;;28.50;96.40;;;;;;4955703;28;20242;-74
2023/06/23 16:11:05;;;;;;;2.78;2.20;;;28.60;97.20;;;;;;4955517;29;20303;-75
2023/06/23 16:13:32;;;;;;;2.55;1.67;;;28.60;96.30;;;;;;4956343;29;20231;-74
2023/06/23 16:15:59;;;;;;;3.15;1.83;;;28.60;97.00;;;;;;4956347;29;20219;-74
2023/06/23 16:18:26;;;;;;;6.38;2.22;;;28.30;97.60;;;;;;4955920;29;20208;-74
2023/06/23 16:20:53;;;;;;;3.03;2.00;;;28.30;97.00;;;;;;4956306;29;20207;-74
2023/06/23 16:23:20;;;;;;;4.45;2.30;;;28.30;97.70;;;;;;4938782;29;20239;-73
2023/06/23 16:25:48;;;;;;;2.25;1.80;;;28.30;97.50;;;;;;4938624;29;20704;-75
2023/06/23 16:28:15;;;;;;;2.80;1.95;;;28.40;96.50;;;;;;4955441;29;20232;-73
2023/06/23 16:30:42;;;;;;;2.90;1.83;;;28.40;97.60;;;;;;4956080;29;20211;-74
2023/06/23 16:33:09;;;;;;;2.35;1.92;;;28.30;97.40;;;;;;4955351;29;20569;-74
2023/06/23 16:35:36;;;;;;;2.90;1.83;;;28.30;97.00;;;;;;4955624;29;20292;-73
2023/06/23 16:38:03;;;;;;;3.60;1.95;;;28.10;96.70;;;;;;4956103;29;20204;-72
2023/06/23 16:40:30;;;;;;;2.78;1.92;;;27.90;97.70;;;;;;4955629;29;20214;-73
2023/06/23 16:42:59;;;;;;;2.63;1.95;;;27.70;97.60;;;;;;4955852;29;20224;-72
2023/06/23 16:45:28;;;;;;;6.30;2.08;;;27.70;97.70;;;;;;4955795;29;20212;-73
2023/06/23 16:47:55;;;;;;;3.80;2.15;;;27.70;98.50;;;;;;4942687;29;20600;-72
2023/06/23 16:50:22;;;;;;;2.30;1.90;;;27.60;98.80;;;;;;4936722;29;20215;-72
2023/06/23 16:52:49;;;;;;;2.22;1.83;;;27.60;97.60;;;;;;4936377;29;20225;-73
2023/06/23 16:55:15;;;;;;;4.85;1.83;;;27.60;97.20;;;;;;4936080;29;20213;-75
2023/06/23 16:57:43;;;;;;;2.47;1.60;;;27.70;97.10;;;;;;4942707;29;20226;-72
2023/06/23 17:00:12;;;;;;;2.85;1.85;;;27.60;97.50;;;;;;4936425;29;20209;-72
2023/06/23 17:02:40;;;;;;;2.67;1.83;;;27.50;97.40;;;;;;4936461;29;20232;-73
2023/06/23 17:05:07;;;;;;;2.85;1.88;;;27.40;97.40;;;;;;4935790;29;20213;-72
2023/06/23 17:07:34;;;;;;;2.85;2.22;;;27.50;98.00;;;;;;4935796;29;20217;-72
2023/06/23 17:10:01;;;;;;;4.43;1.95;;;27.50;97.00;;;;;;4936640;29;20212;-72
2023/06/23 17:12:28;;;;;;;2.70;2.03;;;27.50;97.90;;;;;;4936170;29;20220;-72
2023/06/23 17:14:54;;;;;;;2.85;1.85;;;27.50;98.50;;;;;;4935903;29;20211;-72
2023/06/23 17:17:23;;;;;;;2.30;1.58;;;27.50;97.80;;;;;;4936044;29;20304;-72
2023/06/23 17:19:49;;;;;;;3.33;1.98;;;27.40;98.10;;;;;;4935829;29;20560;-72
2023/06/23 17:22:16;;;;;;;2.30;1.75;;;27.40;97.90;;;;;;4935146;29;20312;-72
2023/06/23 17:24:44;;;;;;;2.60;1.90;;;27.40;97.60;;;;;;4936017;29;20213;-72
2023/06/23 17:27:11;;;;;;;4.75;2.25;;;27.20;97.60;;;;;;4935855;29;20215;-73
2023/06/23 17:29:38;;;;;;;3.55;1.90;;;27.10;98.40;;;;;;4935978;29;20274;-73
2023/06/23 17:32:08;;;;;;;3.92;2.10;;;27.20;98.80;;;;;;4935446;29;20660;-73
2023/06/23 17:34:36;;;;;;;4.30;2.10;;;27.20;97.90;;;;;;4935786;29;20224;-73
2023/06/23 17:37:03;;;;;;;2.95;1.83;;;27.30;99.20;;;;;;4935550;29;20303;-72
2023/06/23 17:39:30;;;;;;;3.47;1.90;;;27.40;98.70;;;;;;4935587;29;20612;-73
2023/06/23 17:41:57;;;;;;;2.47;1.45;;;27.50;98.20;;;;;;4936149;29;20249;-73
2023/06/23 17:44:23;;;;;;;7.72;2.13;;;27.50;98.80;;;;;;4935837;29;20233;-73
2023/06/23 17:46:50;;;;;;;3.35;1.60;;;27.40;98.40;;;;;;4935292;29;20292;-73
2023/06/23 17:49:17;;;;;;;3.17;1.65;;;27.40;97.60;;;;;;4934894;29;20349;-73
2023/06/23 17:51:47;;;;;;;2.90;1.75;;;27.30;98.00;;;;;;4935309;29;20224;-72
2023/06/23 17:54:13;;;;;;;3.05;1.90;;;27.30;98.90;;;;;;4935396;29;20280;-73
2023/06/23 17:56:40;;;;;;;2.53;2.00;;;27.30;97.90;;;;;;4935415;29;20709;-72
2023/06/23 17:59:09;;;;;;;3.17;2.20;;;27.20;99.00;;;;;;4935401;29;20295;-73
2023/06/23 18:01:36;;;;;;;3.85;2.15;;;27.20;99.10;;;;;;4935260;29;20209;-73
2023/06/23 18:04:03;;;;;;;4.55;2.40;;;27.00;98.90;;;;;;4935806;29;20279;-72
2023/06/23 18:06:31;;;;;;;3.65;1.60;;;26.90;98.80;;;;;;4935316;29;20216;-72
2023/06/23 18:08:59;;;;;;;3.85;1.80;;;26.80;98.70;;;;;;4935360;29;20236;-73
2023/06/23 18:11:26;;;;;;;3.10;1.60;;;26.70;98.50;;;;;;4935362;29;20636;-73
2023/06/23 18:13:52;;;;;;;2.35;1.70;;;26.60;99.20;;;;;;4935157;29;20323;-73
2023/06/23 18:16:19;;;;;;;3.60;1.65;;;26.50;99.60;;;;;;4934967;29;20743;-73
2023/06/23 18:18:46;;;;;;;2.85;1.80;;;26.50;99.30;;;;;;4935067;29;20591;-73
2023/06/23 18:21:13;;;;;;;2.63;1.70;;;26.50;99.60;;;;;;4935451;29;20650;-72
2023/06/23 18:23:40;;;;;;;2.85;1.98;;;26.50;99.80;;;;;;4935026;29;20316;-72
2023/06/23 18:26:08;;;;;;;2.25;1.83;;;26.50;99.80;;;;;;4934915;29;20208;-73
2023/06/23 18:28:35;;;;;;;2.30;1.63;;;26.50;99.80;;;;;;4935393;29;20236;-73
2023/06/23 18:31:02;;;;;;;3.15;1.70;;;26.40;99.90;;;;;;4935388;29;20219;-72
2023/06/23 18:33:29;;;;;;;2.78;1.85;;;26.20;99.90;;;;;;4937634;29;20564;-72
2023/06/23 18:35:56;;;;;;;4.13;2.00;;;26.10;99.90;;;;;;4938998;29;20215;-72
2023/06/23 18:38:23;;;;;;;2.85;1.90;;;26.00;99.90;;;;;;4938924;29;20583;-72
2023/06/23 18:40:50;;;;;;;3.35;2.03;;;26.00;99.90;;;;;;4939083;29;20299;-73
2023/06/23 18:43:18;;;;;;;2.22;1.75;;;25.90;99.90;;;;;;4940063;29;20221;-73
2023/06/23 18:45:45;;;;;;;2.65;1.85;;;25.80;99.90;;;;;;4946075;29;20212;-73
2023/06/23 18:48:12;;;;;;;2.78;1.70;;;25.80;99.90;;;;;;4947013;29;20314;-73
2023/06/23 18:50:38;;;;;;;3.05;2.10;;;25.80;99.90;;;;;;4953489;29;20204;-73
2023/06/23 18:53:05;;;;;;;4.00;2.40;;;25.70;99.90;;;;;;4957485;29;20315;-73
2023/06/23 18:55:32;;;;;;;7.03;2.15;;;25.70;99.90;;;;;;4957589;29;20475;-73
2023/06/23 18:57:59;;;;;;;3.55;2.00;;;25.70;99.90;;;;;;4957872;29;20647;-73
2023/06/23 19:00:28;;;;;;;2.17;1.83;;;25.80;99.90;;;;;;4957902;29;20218;-73
2023/06/23 19:02:55;;;;;;;3.30;1.85;;;25.70;99.90;;;;;;4958219;29;20275;-73
2023/06/23 19:05:22;;;;;;;2.50;1.95;;;25.80;99.90;;;;;;4957483;29;20679;-73
2023/06/23 19:07:51;;;;;;;3.20;2.13;;;25.80;99.90;;;;;;4957315;29;20214;-73
2023/06/23 19:10:17;;;;;;;4.35;2.08;;;25.80;99.90;;;;;;4957692;29;20236;-73
2023/06/23 19:12:44;;;;;;;3.55;1.65;;;25.80;99.90;;;;;;4957302;29;20802;-73
2023/06/23 19:15:11;;;;;;;3.45;2.13;;;25.80;99.90;;;;;;4957089;29;20671;-73
2023/06/23 19:17:40;;;;;;;2.47;2.00;;;25.70;99.90;;;;;;4957143;29;20218;-73
2023/06/23 19:20:09;;;;;;;3.83;2.13;;;25.60;99.90;;;;;;4956903;29;20208;-72
2023/06/23 19:22:36;;;;;;;3.03;2.08;;;25.50;99.90;;;;;;4957111;29;20224;-73
2023/06/23 19:25:03;;;;;;;3.35;2.58;;;25.50;99.90;;;;;;4956122;29;20212;-72
2023/06/23 19:27:30;;;;;;;2.83;1.95;;;25.50;99.90;;;;;;4957738;29;20230;-72
2023/06/23 19:29:57;;;;;;;3.50;2.28;;;25.40;99.90;;;;;;4957577;29;20258;-72
2023/06/23 19:32:23;;;;;;;3.67;1.95;;;25.30;99.90;;;;;;4957457;29;20223;-73
2023/06/23 19:34:51;;;;;;;2.90;1.80;;;25.30;99.90;;;;;;4957291;29;20212;-73
2023/06/23 19:37:18;;;;;;;3.85;1.88;;;25.30;99.90;;;;;;4957522;29;20215;-73
2023/06/23 19:39:45;;;;;;;3.80;1.98;;;25.20;99.90;;;;;;4957014;29;20290;-73
2023/06/23 19:42:12;;;;;;;3.83;1.90;;;25.20;99.90;;;;;;4957081;29;20208;-73
2023/06/23 19:44:39;;;;;;;5.25;2.03;;;25.10;99.90;;;;;;4957185;28;20204;-73
2023/06/23 19:47:06;;;;;;;4.00;2.10;;;25.10;99.90;;;;;;4957036;29;20745;-73
2023/06/23 19:49:33;;;;;;;3.05;2.00;;;25.00;99.90;;;;;;4957035;29;20242;-73
2023/06/23 19:52:01;;;;;;;3.03;1.95;;;24.90;99.90;;;;;;4956497;29;20750;-74
2023/06/23 19:54:28;;;;;;;2.95;2.28;;;24.90;99.90;;;;;;4956647;29;20227;-73
2023/06/23 19:56:54;;;;;;;3.10;2.03;;;24.80;99.90;;;;;;4956822;29;20299;-73
2023/06/23 19:59:21;;;;;;;3.13;2.20;;;24.70;99.90;;;;;;4956791;29;20222;-73
2023/06/23 20:01:48;;;;;;;3.65;2.42;;;24.70;99.90;;;;;;4956354;29;20678;-73
2023/06/23 20:04:15;;;;;;;3.88;2.17;;;24.50;99.90;;;;;;4956561;29;20227;-73
2023/06/23 20:06:42;;;;;;;2.92;2.15;;;24.40;99.90;;;;;;4956357;29;20694;-73
2023/06/23 20:09:10;;;;;;;3.63;2.63;;;24.30;99.90;;;;;;4956740;29;20223;-73
2023/06/23 20:11:37;;;;;;;4.63;2.58;;;24.20;99.90;;;;;;4956414;29;20687;-73
2023/06/23 20:14:05;;;;;;;5.32;2.88;;;24.10;99.90;;;;;;4956762;29;20242;-74
2023/06/23 20:16:32;;;;;;;7.20;3.92;;;24.00;99.90;;;;;;4956213;29;20291;-73
2023/06/23 20:18:59;;;;;;;6.03;3.42;;;24.00;99.90;;;;;;4955747;29;20216;-73
2023/06/23 20:21:26;;;;;;;5.10;2.67;;;23.90;99.90;;;;;;4955586;29;20212;-73
2023/06/23 20:23:53;;;;;;;3.80;2.60;;;23.80;99.90;;;;;;4955795;29;20224;-74
2023/06/23 20:26:21;;;;;;;6.18;3.00;;;23.70;99.90;;;;;;4955421;29;20208;-72
2023/06/23 20:28:48;;;;;;;3.92;2.65;;;23.70;99.90;;;;;;4955883;29;20238;-72
2023/06/23 20:31:15;;;;;;;6.22;3.88;;;23.70;99.90;;;;;;4955750;29;20222;-72
2023/06/23 20:33:42;;;;;;;5.88;3.17;;;23.50;99.90;;;;;;4955604;29;20311;-72
2023/06/23 20:36:09;;;;;;;3.70;2.38;;;23.40;99.90;;;;;;4955587;29;20298;-72
2023/06/23 20:38:36;;;;;;;3.42;2.47;;;23.40;99.90;;;;;;4955434;29;20681;-71
2023/06/23 20:41:02;;;;;;;5.25;2.53;;;23.40;99.90;;;;;;4955979;29;20210;-72
2023/06/23 20:43:31;;;;;;;3.08;2.13;;;23.30;99.90;;;;;;4955690;29;20267;-71
2023/06/23 20:45:57;;;;;;;4.15;2.22;;;23.20;99.90;;;;;;4955629;29;20536;-72
2023/06/23 20:48:24;;;;;;;4.63;2.25;;;23.20;99.90;;;;;;4955445;29;20216;-72
2023/06/23 20:50:51;;;;;;;4.68;2.85;;;23.10;99.90;;;;;;4955482;29;20702;-72
2023/06/23 20:53:18;;;;;;;3.35;2.08;;;23.00;99.90;;;;;;4955524;29;20228;-71
2023/06/23 20:55:45;;;;;;;3.55;2.38;;;22.90;99.90;;;;;;4955319;28;20303;-72
2023/06/23 20:58:12;;;;;;;3.08;2.15;;;22.90;99.90;;;;;;4955637;29;20298;-72
2023/06/23 21:00:40;;;;;;;3.63;2.42;;;22.80;99.90;;;;;;4955278;29;20212;-72
2023/06/23 21:03:07;;;;;;;3.22;2.10;;;22.80;99.90;;;;;;4955406;29;20315;-72
2023/06/23 21:05:33;;;;;;;3.47;1.85;;;22.60;99.90;;;;;;4955121;29;20578;-72
2023/06/23 21:08:00;;;;;;;4.60;2.60;;;22.70;99.90;;;;;;4955151;29;20218;-72
2023/06/23 21:10:27;;;;;;;3.83;2.50;;;22.70;99.90;;;;;;4955370;29;20326;-72
2023/06/23 21:12:54;;;;;;;5.07;2.40;;;22.60;99.90;;;;;;4955258;29;20234;-72
2023/06/23 21:15:24;;;;;;;3.97;2.50;;;22.40;99.90;;;;;;4955097;29;20208;-72
2023/06/23 21:17:52;;;;;;;3.80;2.30;;;22.30;99.90;;;;;;4955520;29;20208;-72
2023/06/23 21:20:22;;;;;;;4.57;2.63;;;22.30;99.90;;;;;;4955337;29;20310;-72
2023/06/23 21:22:48;;;;;;;4.10;2.83;;;22.30;99.90;;;;;;4951642;29;20228;-74
